Terminal Aerodrome Forecast
Issued by NWS Wakefield, VA

Home | Current Version | Previous Version | Text Only | Print | Product List | Glossary On
Versions: 1 2 3 4 5 6 7 8 9 10 11 12 13 14 15 16 17 18 19 20 21 22 23 24
000
FTUS41 KAKQ 010539
TAFECG
TAF
KECG 010539Z 0106/0206 06005KT P6SM FEW010 SCT200
     FM010900 05004KT 5SM BR SCT010 SCT020 BKN150
     FM011300 06008KT P6SM SCT020 BKN150
     FM011600 06009KT P6SM -SHRA SCT020 BKN050 BKN120=

USA.gov is the U.S. government's official web portal to all federal, state and local government web resources and services.